ESSL

Linköping City Airport

Linköping, Sweden
METAR ESSL 200720Z 07004KT 9999 -SN OVC017 M05/M06 Q1028 R29/490095
Observed Flight Rules
Feb-20 @ 07:20 UTC (18 minutes ago) Marginal Visual Flight Rules
Wind Visibility Clouds Conditions
70° at 4 knots 10,000+ meters
  • Overcast at 1,700' AGL
  • Light Snow
Temperatures Readings
Current -5°C / 23°F
Dewpoint -6°C / 21°F
Humidity 93%
Altimeter 30.35" Hg
Pressure 1028 hPa
Elevation 52
METAR ESSL 200720Z 07004KT 9999 -SN OVC017 M05/M06 Q1028 R29/490095
Observed Flight Rules
Feb-20 @ 07:20 UTC
(18 minutes ago)
MVFR
Wind Visibility
70° at 4 knots 10,000+ meters
Clouds
  • Overcast at 1,700' AGL
Conditions
  • Light Snow
Temperature Dewpoint
-5°C / 23°F -6°C / 21°F
Humidity Altimeter Pressure
93% 30.35" Hg 1028 hPa